createdAt,value
2023-01-21T00:00:39.064Z,23.38
2023-01-21T00:03:09.070Z,25.27
2023-01-21T00:05:38.536Z,25.65
2023-01-21T00:08:07.991Z,30.08
2023-01-21T00:10:37.621Z,25.95
2023-01-21T00:13:07.095Z,26.65
2023-01-21T00:15:38.539Z,26.17
2023-01-21T00:18:08.548Z,26.40
2023-01-21T00:20:38.692Z,25.55
2023-01-21T00:23:08.167Z,23.80
2023-01-21T00:25:37.549Z,30.02
2023-01-21T00:28:07.220Z,31.30
2023-01-21T00:30:39.247Z,25.85
2023-01-21T00:33:09.226Z,25.50
2023-01-21T00:35:38.608Z,23.83
2023-01-21T00:38:07.968Z,24.95
2023-01-21T00:40:37.430Z,24.17
2023-01-21T00:43:06.843Z,28.63
2023-01-21T00:45:36.232Z,28.05
2023-01-21T00:48:07.280Z,28.75
2023-01-21T00:50:36.656Z,26.45
2023-01-21T00:53:06.026Z,33.58
2023-01-21T00:55:35.513Z,28.83
2023-01-21T00:58:05.039Z,28.65
2023-01-21T01:00:34.603Z,30.27
2023-01-21T01:03:04.418Z,26.30
2023-01-21T01:05:35.325Z,32.50
2023-01-21T01:08:04.846Z,32.95
2023-01-21T01:10:34.334Z,32.95
2023-01-21T01:13:03.818Z,22.70
2023-01-21T01:15:33.302Z,24.48
2023-01-21T01:18:03.561Z,30.77
2023-01-21T01:20:34.675Z,28.33
2023-01-21T01:23:05.211Z,26.83
2023-01-21T01:25:35.435Z,31.30
2023-01-21T01:28:06.074Z,30.90
2023-01-21T01:30:37.426Z,26.95
2023-01-21T01:33:07.005Z,29.95
2023-01-21T01:35:37.888Z,31.05
2023-01-21T01:38:09.449Z,27.77
2023-01-21T01:40:40.520Z,28.02
2023-01-21T01:43:25.143Z,30.83
2023-01-21T01:45:55.521Z,29.80
2023-01-21T01:48:44.924Z,29.95
2023-01-21T01:51:19.472Z,34.35
2023-01-21T01:53:50.152Z,31.35
2023-01-21T01:56:20.538Z,34.38
2023-01-21T01:58:50.841Z,33.72
2023-01-21T02:01:20.501Z,30.33
2023-01-21T02:03:59.211Z,34.10
2023-01-21T02:06:30.212Z,29.40
2023-01-21T02:08:59.823Z,29.48
2023-01-21T02:11:29.727Z,33.08
2023-01-21T02:14:01.254Z,30.42
2023-01-21T02:17:07.281Z,30.92
2023-01-21T02:20:50.512Z,33.22
2023-01-21T02:23:45.479Z,34.17
2023-01-21T02:27:15.067Z,33.08
2023-01-21T02:30:53.627Z,37.45
2023-01-21T02:34:00.731Z,36.10
2023-01-21T02:36:49.280Z,31.45
2023-01-21T02:39:33.502Z,34.72
2023-01-21T02:42:07.954Z,30.27
2023-01-21T02:44:41.943Z,31.00
2023-01-21T02:47:27.137Z,33.28
2023-01-21T02:50:04.578Z,31.92
2023-01-21T02:52:34.029Z,31.25
2023-01-21T02:55:05.408Z,29.88
2023-01-21T02:57:46.950Z,32.22
2023-01-21T03:00:23.179Z,31.38
2023-01-21T03:03:26.023Z,33.22
2023-01-21T03:06:53.652Z,33.65
2023-01-21T03:09:26.558Z,30.17
2023-01-21T03:12:10.708Z,34.75
2023-01-21T03:15:07.839Z,31.35
2023-01-21T03:17:42.715Z,31.15
2023-01-21T03:20:20.699Z,32.33
2023-01-21T03:23:00.566Z,33.50
2023-01-21T03:25:33.636Z,34.28
2023-01-21T03:28:10.441Z,32.28
2023-01-21T03:30:44.924Z,29.77
2023-01-21T03:33:16.698Z,31.77
2023-01-21T03:35:48.737Z,30.23
2023-01-21T03:38:27.214Z,33.90
2023-01-21T03:41:02.567Z,30.02
2023-01-21T03:43:32.431Z,35.13
2023-01-21T03:46:10.013Z,32.53
2023-01-21T03:48:47.175Z,29.63
2023-01-21T03:51:22.868Z,32.83
2023-01-21T03:53:58.464Z,28.08
2023-01-21T03:56:29.217Z,31.00
2023-01-21T03:58:58.683Z,30.00
2023-01-21T04:01:28.116Z,33.58
2023-01-21T04:03:57.782Z,30.42
2023-01-21T04:06:27.198Z,31.35
2023-01-21T04:08:58.050Z,26.52
2023-01-21T04:11:27.525Z,31.60
2023-01-21T04:13:56.968Z,31.00
2023-01-21T04:16:26.586Z,31.25
2023-01-21T04:18:56.088Z,31.30
2023-01-21T04:21:25.524Z,31.45
2023-01-21T04:23:56.865Z,32.72
2023-01-21T04:26:26.411Z,32.58
2023-01-21T04:28:55.822Z,30.65
2023-01-21T04:31:25.242Z,30.27
2023-01-21T04:33:54.696Z,28.73
2023-01-21T04:36:24.187Z,27.95
2023-01-21T04:38:53.627Z,27.85
2023-01-21T04:41:25.557Z,36.70
2023-01-21T04:43:55.353Z,32.03
2023-01-21T04:46:24.801Z,33.83
2023-01-21T04:48:54.266Z,30.17
2023-01-21T04:51:23.729Z,31.63
2023-01-21T04:53:53.170Z,33.83
2023-01-21T04:56:44.249Z,33.05
2023-01-21T04:59:14.119Z,31.38
2023-01-21T05:01:43.725Z,33.28
2023-01-21T05:04:13.241Z,32.50
2023-01-21T05:06:42.748Z,33.92
2023-01-21T05:09:12.300Z,35.67
2023-01-21T05:11:43.155Z,41.33
2023-01-21T05:14:12.725Z,28.50
2023-01-21T05:16:42.398Z,31.25
2023-01-21T05:19:12.553Z,35.05
2023-01-21T05:21:42.047Z,31.83
2023-01-21T05:24:14.663Z,30.05
2023-01-21T05:26:45.712Z,32.67
2023-01-21T05:29:15.180Z,34.05
2023-01-21T05:31:44.835Z,28.27
2023-01-21T05:34:14.519Z,28.48
2023-01-21T05:36:44.132Z,31.23
2023-01-21T05:39:13.622Z,29.10
2023-01-21T05:41:43.102Z,26.52
2023-01-21T05:44:17.408Z,29.80
2023-01-21T05:46:47.121Z,32.70
2023-01-21T05:49:16.585Z,33.03
2023-01-21T05:51:46.126Z,28.45
2023-01-21T05:54:15.938Z,26.77
2023-01-21T05:56:45.435Z,30.90
2023-01-21T05:59:16.192Z,31.08
2023-01-21T06:01:45.637Z,27.95
2023-01-21T06:04:15.027Z,30.83
2023-01-21T06:06:44.500Z,31.77
2023-01-21T06:09:13.900Z,30.85
2023-01-21T06:11:43.347Z,30.80
2023-01-21T06:14:12.915Z,26.58
2023-01-21T06:16:43.675Z,31.90
2023-01-21T06:19:20.474Z,35.40
2023-01-21T06:21:49.832Z,30.05
2023-01-21T06:24:19.620Z,28.17
2023-01-21T06:26:49.013Z,25.33
2023-01-21T06:29:18.639Z,32.83
2023-01-21T06:31:49.505Z,29.10
2023-01-21T06:34:18.994Z,30.00
2023-01-21T06:36:48.461Z,30.17
2023-01-21T06:39:17.930Z,28.20
2023-01-21T06:41:47.387Z,26.50
2023-01-21T06:44:16.899Z,25.42
2023-01-21T06:47:00.223Z,30.58
2023-01-21T06:49:31.690Z,31.45
2023-01-21T06:52:01.169Z,33.17
2023-01-21T06:54:30.715Z,29.27
2023-01-21T06:57:00.445Z,29.70
2023-01-21T06:59:30.082Z,28.35
2023-01-21T07:01:59.602Z,30.90
2023-01-21T07:04:30.854Z,30.15
2023-01-21T07:07:00.406Z,28.35
2023-01-21T07:09:29.866Z,29.15
2023-01-21T07:11:59.423Z,27.30
2023-01-21T07:14:29.013Z,31.35
2023-01-21T07:16:58.497Z,30.80
2023-01-21T07:19:28.283Z,28.67
2023-01-21T07:21:59.088Z,28.85
2023-01-21T07:24:28.784Z,30.10
2023-01-21T07:26:58.338Z,28.92
2023-01-21T07:29:29.406Z,34.00
2023-01-21T07:31:58.861Z,32.67
2023-01-21T07:34:29.776Z,29.40
2023-01-21T07:37:00.657Z,34.10
2023-01-21T07:39:30.015Z,32.30
2023-01-21T07:41:59.407Z,32.72
2023-01-21T07:44:29.715Z,33.08
2023-01-21T07:46:59.377Z,38.17
2023-01-21T07:49:28.787Z,37.97
2023-01-21T07:51:59.903Z,28.92
2023-01-21T07:54:29.615Z,39.38
2023-01-21T07:56:59.316Z,35.42
2023-01-21T07:59:28.785Z,32.30
2023-01-21T08:01:58.450Z,34.42
2023-01-21T08:05:12.609Z,35.05
2023-01-21T08:07:43.481Z,33.63
2023-01-21T08:10:13.127Z,36.90
2023-01-21T08:12:42.852Z,34.40
2023-01-21T08:15:13.303Z,34.95
2023-01-21T08:17:46.481Z,30.75
2023-01-21T08:20:16.454Z,31.52
2023-01-21T08:22:47.199Z,26.55
2023-01-21T08:25:17.218Z,34.15
2023-01-21T08:27:47.099Z,37.40
2023-01-21T08:30:18.172Z,30.50
2023-01-21T08:32:47.621Z,32.08
2023-01-21T08:35:17.721Z,33.17
2023-01-21T08:37:49.755Z,28.35
2023-01-21T08:40:19.461Z,29.98
2023-01-21T08:42:49.094Z,26.80
2023-01-21T08:45:19.027Z,26.38
2023-01-21T08:47:48.721Z,33.50
2023-01-21T08:50:18.926Z,33.08
2023-01-21T08:52:54.456Z,29.80
2023-01-21T08:55:26.881Z,32.58
2023-01-21T08:57:58.409Z,34.73
2023-01-21T09:00:28.577Z,31.88
2023-01-21T09:03:00.178Z,28.70
2023-01-21T09:05:29.583Z,28.63
2023-01-21T09:08:00.367Z,31.05
2023-01-21T09:10:47.390Z,34.35
2023-01-21T09:13:17.227Z,32.65
2023-01-21T09:15:46.793Z,32.97
2023-01-21T09:18:16.184Z,30.10
2023-01-21T09:20:45.746Z,31.90
2023-01-21T09:23:25.436Z,33.03
2023-01-21T09:25:57.123Z,36.83
2023-01-21T09:28:26.655Z,33.60
2023-01-21T09:30:58.992Z,33.28
2023-01-21T09:33:30.865Z,31.67
2023-01-21T09:36:05.211Z,31.00
2023-01-21T09:38:36.429Z,34.83
2023-01-21T09:41:23.591Z,36.38
2023-01-21T09:44:06.348Z,31.52
2023-01-21T09:46:45.831Z,33.97
2023-01-21T09:49:24.690Z,38.22
2023-01-21T09:52:03.795Z,30.90
2023-01-21T09:54:39.611Z,34.72
2023-01-21T10:00:32.367Z,26.92
2023-01-21T10:03:21.527Z,28.65
2023-01-21T10:06:12.453Z,27.23
2023-01-21T10:09:01.359Z,27.85
2023-01-21T10:11:51.407Z,27.17
2023-01-21T10:14:54.326Z,25.55
2023-01-21T10:17:40.967Z,27.60
2023-01-21T10:20:18.759Z,28.10
2023-01-21T10:22:57.342Z,27.05
2023-01-21T10:25:32.100Z,28.73
2023-01-21T10:28:10.369Z,26.20
2023-01-21T10:30:44.769Z,27.30
2023-01-21T10:33:20.878Z,26.92
2023-01-21T10:36:35.441Z,26.67
2023-01-21T10:39:18.580Z,26.88
2023-01-21T10:42:11.859Z,22.77
2023-01-21T10:44:52.152Z,19.88
2023-01-21T10:47:34.078Z,32.35
2023-01-21T10:50:26.972Z,27.90
2023-01-21T10:53:05.323Z,23.65
2023-01-21T10:56:01.927Z,25.20
2023-01-21T10:58:39.530Z,28.10
2023-01-21T11:01:22.130Z,28.17
2023-01-21T11:03:54.916Z,27.58
2023-01-21T11:06:26.448Z,21.23
2023-01-21T11:09:03.723Z,22.25
2023-01-21T11:11:37.336Z,34.15
2023-01-21T11:14:06.982Z,25.52
2023-01-21T11:16:44.402Z,26.25
2023-01-21T11:19:17.799Z,24.65
2023-01-21T11:22:05.060Z,25.65
2023-01-21T11:24:45.880Z,27.58
2023-01-21T11:27:22.665Z,25.88
2023-01-21T11:29:52.195Z,23.48
2023-01-21T11:32:25.777Z,23.13
2023-01-21T11:35:05.509Z,22.15
2023-01-21T11:37:36.229Z,25.75
2023-01-21T11:40:19.013Z,24.33
2023-01-21T11:42:53.277Z,24.00
2023-01-21T11:45:30.954Z,25.70
2023-01-21T11:48:02.174Z,30.30
2023-01-21T11:50:34.985Z,22.83
2023-01-21T11:53:17.355Z,23.90
2023-01-21T11:55:51.054Z,26.75
2023-01-21T11:58:25.113Z,23.05
2023-01-21T12:00:57.907Z,26.45
2023-01-21T12:03:35.337Z,24.23
2023-01-21T12:06:07.930Z,27.65
2023-01-21T12:08:40.889Z,25.27
2023-01-21T12:11:11.536Z,23.30
2023-01-21T12:13:48.036Z,26.10
2023-01-21T12:16:33.150Z,24.15
2023-01-21T12:19:49.241Z,22.85
2023-01-21T12:22:36.452Z,23.65
2023-01-21T12:25:24.271Z,21.83
2023-01-21T12:28:17.985Z,26.48
2023-01-21T12:31:03.199Z,25.20
2023-01-21T12:33:49.475Z,22.85
2023-01-21T12:36:29.384Z,22.73
2023-01-21T12:39:21.321Z,22.67
2023-01-21T12:42:05.789Z,26.33
2023-01-21T12:44:45.107Z,22.92
2023-01-21T12:47:30.111Z,34.30
2023-01-21T12:50:27.842Z,27.73
2023-01-21T12:53:17.508Z,22.17
2023-01-21T12:56:15.569Z,21.02
2023-01-21T12:58:52.410Z,25.52
2023-01-21T13:01:52.191Z,21.85
2023-01-21T13:04:48.020Z,20.38
2023-01-21T13:07:33.089Z,21.52
2023-01-21T13:10:16.818Z,22.48
2023-01-21T13:12:57.297Z,20.65
2023-01-21T13:15:33.498Z,21.60
2023-01-21T13:18:17.490Z,17.80
2023-01-21T13:20:55.156Z,27.10
2023-01-21T13:23:34.835Z,22.70
2023-01-21T13:26:14.467Z,21.35
2023-01-21T13:28:50.531Z,21.50
2023-01-21T13:31:29.631Z,20.17
2023-01-21T13:34:11.322Z,21.00
2023-01-21T13:37:00.995Z,20.17
2023-01-21T13:39:42.726Z,21.00
2023-01-21T13:42:36.258Z,20.35
2023-01-21T13:45:21.874Z,20.23
2023-01-21T13:48:16.879Z,23.65
2023-01-21T13:51:07.845Z,22.20
2023-01-21T13:53:59.684Z,22.25
2023-01-21T13:56:54.371Z,24.83
2023-01-21T13:59:33.004Z,23.60
2023-01-21T14:02:08.463Z,22.88
2023-01-21T14:04:45.229Z,19.27
2023-01-21T14:07:23.871Z,23.65
2023-01-21T14:10:02.687Z,22.55
2023-01-21T14:13:43.746Z,21.90
2023-01-21T14:16:59.074Z,24.40
2023-01-21T14:20:15.661Z,21.60
2023-01-21T14:23:20.520Z,22.90
2023-01-21T14:26:38.524Z,25.83
2023-01-21T14:29:21.269Z,23.58
2023-01-21T14:31:58.376Z,21.53
2023-01-21T14:34:35.840Z,24.05
2023-01-21T14:37:12.948Z,18.63
2023-01-21T14:39:55.453Z,19.50
2023-01-21T14:42:44.361Z,16.83
2023-01-21T14:45:16.697Z,19.35
2023-01-21T14:47:53.695Z,22.10
2023-01-21T14:50:48.142Z,19.77
2023-01-21T14:53:25.361Z,22.13
2023-01-21T14:56:16.259Z,27.95
2023-01-21T14:58:51.755Z,25.95
2023-01-21T15:01:45.108Z,20.52
2023-01-21T15:04:27.120Z,18.88
2023-01-21T15:06:59.949Z,20.35
2023-01-21T15:09:34.175Z,13.43
2023-01-21T15:12:08.293Z,18.48
2023-01-21T15:14:41.794Z,23.27
2023-01-21T15:17:45.748Z,19.63
2023-01-21T15:20:50.784Z,22.88
2023-01-21T15:23:40.065Z,17.52
2023-01-21T15:26:33.406Z,17.63
2023-01-21T15:29:34.655Z,13.10
2023-01-21T15:32:30.679Z,18.30
2023-01-21T15:35:05.066Z,16.85
2023-01-21T15:37:42.751Z,17.63
2023-01-21T15:40:20.853Z,19.35
2023-01-21T15:43:00.327Z,17.08
2023-01-21T15:45:39.009Z,17.40
2023-01-21T15:48:47.997Z,15.43
2023-01-21T15:51:35.440Z,15.82
2023-01-21T15:54:33.626Z,18.33
2023-01-21T15:57:35.238Z,16.10
2023-01-21T16:00:30.650Z,15.98
2023-01-21T16:03:23.536Z,20.48
2023-01-21T16:06:05.496Z,16.52
2023-01-21T16:09:02.910Z,20.33
2023-01-21T16:11:59.457Z,17.15
2023-01-21T16:14:52.921Z,14.15
2023-01-21T16:17:37.027Z,16.73
2023-01-21T16:20:11.134Z,19.05
2023-01-21T16:22:46.229Z,13.18
2023-01-21T16:25:20.131Z,14.43
2023-01-21T16:27:55.392Z,15.52
2023-01-21T16:30:31.008Z,17.05
2023-01-21T16:33:12.410Z,15.75
2023-01-21T16:35:48.553Z,13.25
2023-01-21T16:38:21.784Z,14.40
2023-01-21T16:40:52.735Z,14.93
2023-01-21T16:43:28.629Z,16.73
2023-01-21T16:46:05.850Z,15.98
2023-01-21T16:48:36.497Z,15.25
2023-01-21T16:51:07.427Z,16.25
2023-01-21T16:53:36.917Z,15.43
2023-01-21T16:56:27.156Z,14.05
2023-01-21T16:59:02.794Z,12.50
2023-01-21T17:01:32.932Z,14.77
2023-01-21T17:04:03.462Z,12.07
2023-01-21T17:06:33.743Z,12.90
2023-01-21T17:09:08.512Z,15.45
2023-01-21T17:11:46.069Z,13.27
2023-01-21T17:14:25.482Z,14.63
2023-01-21T17:16:57.814Z,17.13
2023-01-21T17:19:36.810Z,14.50
2023-01-21T17:22:16.673Z,12.32
2023-01-21T17:25:17.617Z,17.45
2023-01-21T17:27:47.393Z,16.55
2023-01-21T17:30:36.490Z,15.38
2023-01-21T17:33:05.933Z,15.00
2023-01-21T17:35:35.526Z,17.52
2023-01-21T17:38:06.532Z,15.95
2023-01-21T17:40:41.898Z,14.25
2023-01-21T17:43:22.512Z,15.45
2023-01-21T17:45:56.396Z,13.90
2023-01-21T17:48:33.349Z,15.77
2023-01-21T17:51:11.241Z,15.10
2023-01-21T17:53:46.264Z,16.70
2023-01-21T17:56:16.242Z,14.02
2023-01-21T17:58:51.107Z,15.93
2023-01-21T18:01:22.676Z,19.70
2023-01-21T18:03:52.132Z,14.32
2023-01-21T18:06:26.772Z,14.07
2023-01-21T18:08:58.401Z,15.13
2023-01-21T18:11:27.788Z,17.02
2023-01-21T18:13:57.195Z,16.75
2023-01-21T18:16:28.246Z,14.98
2023-01-21T18:18:57.764Z,15.65
2023-01-21T18:21:27.154Z,14.57
2023-01-21T18:23:56.657Z,18.27
2023-01-21T18:26:31.356Z,19.55
2023-01-21T18:29:00.855Z,15.00
2023-01-21T18:31:31.667Z,16.77
2023-01-21T18:34:01.209Z,17.33
2023-01-21T18:36:30.618Z,18.50
2023-01-21T18:39:00.377Z,16.77
2023-01-21T18:41:29.876Z,14.77
2023-01-21T18:43:59.274Z,18.83
2023-01-21T18:46:28.857Z,14.30
2023-01-21T18:48:59.786Z,19.48
2023-01-21T18:51:29.562Z,20.38
2023-01-21T18:53:59.016Z,16.38
2023-01-21T18:56:28.619Z,18.48
2023-01-21T18:58:58.002Z,16.65
2023-01-21T19:01:27.669Z,22.10
2023-01-21T19:03:57.089Z,16.60
2023-01-21T19:06:27.888Z,21.15
2023-01-21T19:08:57.295Z,15.10
2023-01-21T19:11:26.722Z,42.75
2023-01-21T19:13:56.243Z,29.58
2023-01-21T19:16:25.841Z,19.92
2023-01-21T19:18:55.354Z,18.85
2023-01-21T19:21:24.823Z,20.65
2023-01-21T19:23:57.686Z,17.92
2023-01-21T19:26:28.305Z,17.77
2023-01-21T19:28:57.700Z,16.40
2023-01-21T19:31:27.314Z,18.00
2023-01-21T19:33:57.009Z,17.48
2023-01-21T19:36:27.214Z,16.33
2023-01-21T19:39:01.413Z,15.85
2023-01-21T19:41:30.920Z,18.33
2023-01-21T19:44:00.355Z,22.15
2023-01-21T19:46:29.768Z,20.15
2023-01-21T19:48:59.612Z,19.05
2023-01-21T19:51:31.764Z,16.13
2023-01-21T19:54:02.871Z,14.83
2023-01-21T19:56:32.879Z,21.35
2023-01-21T19:59:03.429Z,20.08
2023-01-21T20:01:32.979Z,17.25
2023-01-21T20:04:02.384Z,17.55
2023-01-21T20:06:40.262Z,22.02
2023-01-21T20:09:17.679Z,18.80
2023-01-21T20:11:47.065Z,18.25
2023-01-21T20:14:16.448Z,20.05
2023-01-21T20:16:50.085Z,19.88
2023-01-21T20:19:20.429Z,19.67
2023-01-21T20:22:01.135Z,16.58
2023-01-21T20:24:34.311Z,22.15
2023-01-21T20:27:08.571Z,19.05
2023-01-21T20:29:49.663Z,19.15
2023-01-21T20:32:24.896Z,18.92
2023-01-21T20:34:54.337Z,19.48
2023-01-21T20:37:23.763Z,18.02
2023-01-21T20:39:54.503Z,18.60
2023-01-21T20:42:23.995Z,22.92
2023-01-21T20:44:53.427Z,19.15
2023-01-21T20:47:37.772Z,22.15
2023-01-21T20:50:19.049Z,22.83
2023-01-21T20:52:50.186Z,21.10
2023-01-21T20:55:24.046Z,19.02
2023-01-21T20:57:53.969Z,25.70
2023-01-21T21:00:26.631Z,28.90
2023-01-21T21:02:57.580Z,29.67
2023-01-21T21:05:29.038Z,23.25
2023-01-21T21:07:58.633Z,19.77
2023-01-21T21:10:36.150Z,21.63
2023-01-21T21:13:06.789Z,23.83
2023-01-21T21:15:38.146Z,18.13
2023-01-21T21:18:08.051Z,21.95
2023-01-21T21:20:39.808Z,18.70
2023-01-21T21:23:13.854Z,19.98
2023-01-21T21:25:48.137Z,19.58
2023-01-21T21:28:21.118Z,23.70
2023-01-21T21:30:50.577Z,23.25
2023-01-21T21:33:23.469Z,21.40
2023-01-21T21:35:52.914Z,16.13
2023-01-21T21:38:22.799Z,20.02
2023-01-21T21:40:53.639Z,23.23
2023-01-21T21:43:38.737Z,23.88
2023-01-21T21:46:27.647Z,22.65
2023-01-21T21:48:57.345Z,20.23
2023-01-21T21:51:27.013Z,22.73
2023-01-21T21:53:56.883Z,18.92
2023-01-21T21:56:27.735Z,22.15
2023-01-21T21:58:57.126Z,23.48
2023-01-21T22:01:30.487Z,22.60
2023-01-21T22:04:00.762Z,22.27
2023-01-21T22:06:31.093Z,21.33
2023-01-21T22:09:01.221Z,23.60
2023-01-21T22:11:32.342Z,22.73
2023-01-21T22:14:03.900Z,24.02
2023-01-21T22:16:34.201Z,23.70
2023-01-21T22:19:03.706Z,22.95
2023-01-21T22:21:35.537Z,23.92
2023-01-21T22:24:08.167Z,22.33
2023-01-21T22:26:39.187Z,20.65
2023-01-21T22:29:08.652Z,22.73
2023-01-21T22:31:38.240Z,22.63
2023-01-21T22:34:07.715Z,21.90
2023-01-21T22:36:37.098Z,22.13
2023-01-21T22:39:06.637Z,19.73
2023-01-21T22:41:36.056Z,21.10
2023-01-21T22:44:06.919Z,23.45
2023-01-21T22:46:36.416Z,19.52
2023-01-21T22:49:05.947Z,20.23
2023-01-21T22:51:35.312Z,23.52
2023-01-21T22:54:04.953Z,20.55
2023-01-21T22:56:50.893Z,22.50
2023-01-21T22:59:22.734Z,19.27
2023-01-21T23:01:52.343Z,21.40
2023-01-21T23:04:21.816Z,17.48
2023-01-21T23:06:54.742Z,20.88
2023-01-21T23:09:24.405Z,19.38
2023-01-21T23:11:53.840Z,22.75
2023-01-21T23:14:24.725Z,18.40
2023-01-21T23:16:54.721Z,21.48
2023-01-21T23:19:24.677Z,21.80
2023-01-21T23:21:54.101Z,22.60
2023-01-21T23:24:23.774Z,25.13
2023-01-21T23:26:53.187Z,21.83
2023-01-21T23:29:24.093Z,20.30
2023-01-21T23:31:53.626Z,19.77
2023-01-21T23:34:23.170Z,19.90
2023-01-21T23:36:52.589Z,22.25
2023-01-21T23:39:21.952Z,19.48
2023-01-21T23:41:51.510Z,20.77
2023-01-21T23:44:20.964Z,22.15
2023-01-21T23:46:51.770Z,26.60
2023-01-21T23:49:21.410Z,21.75
2023-01-21T23:51:50.799Z,26.85
2023-01-21T23:54:20.259Z,21.83
2023-01-21T23:56:49.682Z,20.30
2023-01-21T23:59:19.083Z,23.42
